Seringueiras, Brazil
Current Conditions -  °F | °C
As of 7:00 PM on Sunday 21 Dec 2014 (Local Time) from SBGM Reporting Station
Few Clouds Few Clouds  
Wind Chill: 79°   Ceiling: Unl
Heat Index: 82°   Visibility: 6mi
Dew Point: 75°   Wind: 2mph
Humidity: 89%   Direction: 10°N
Pressure: 29.77"   Gusts: NA
Location:  11.8°S, 63.03°W
Report Text: SBGM 212300Z 01002KT 9999 FEW018 26/24 Q1008
Loading
Personal Weather Stations






























Interactive Weather Map New forecast layout! Learn more

10-Day Weather Forecast

Advertisements
Track Severe Weather on mobile